createdAt,value
2019-03-10T00:00:11.337Z,1003.54
2019-03-10T00:01:12.605Z,1003.54
2019-03-10T00:02:11.372Z,1003.54
2019-03-10T00:03:11.382Z,1003.45
2019-03-10T00:04:11.361Z,1003.50
2019-03-10T00:05:11.371Z,1003.51
2019-03-10T00:06:14.356Z,1003.59
2019-03-10T00:07:11.383Z,1003.50
2019-03-10T00:08:11.362Z,1003.48
2019-03-10T00:09:11.398Z,1003.54
2019-03-10T00:10:11.377Z,1003.60
2019-03-10T00:11:11.387Z,1003.58
2019-03-10T00:12:11.444Z,1003.56
2019-03-10T00:13:11.376Z,1003.46
2019-03-10T00:14:11.506Z,1003.54
2019-03-10T00:15:11.388Z,1003.56
2019-03-10T00:16:11.396Z,1003.52
2019-03-10T00:17:12.173Z,1003.54
2019-03-10T00:18:11.414Z,1003.59
2019-03-10T00:19:11.418Z,1003.54
2019-03-10T00:20:11.433Z,1003.59
2019-03-10T00:21:11.432Z,1003.57
2019-03-10T00:22:11.979Z,1003.51
2019-03-10T00:23:11.448Z,1003.59
2019-03-10T00:24:11.433Z,1003.62
2019-03-10T00:25:11.429Z,1003.58
2019-03-10T00:26:11.447Z,1003.57
2019-03-10T00:27:12.525Z,1003.61
2019-03-10T00:28:11.459Z,1003.61
2019-03-10T00:29:11.439Z,1003.50
2019-03-10T00:30:11.464Z,1003.56
2019-03-10T00:31:11.465Z,1003.58
2019-03-10T00:32:11.461Z,1003.66
2019-03-10T00:33:11.890Z,1003.69
2019-03-10T00:34:11.479Z,1003.62
2019-03-10T00:35:12.537Z,1003.57
2019-03-10T00:36:11.497Z,1003.60
2019-03-10T00:37:11.476Z,1003.72
2019-03-10T00:38:11.569Z,1003.55
2019-03-10T00:39:11.511Z,1003.71
2019-03-10T00:40:11.488Z,1003.73
2019-03-10T00:41:11.486Z,1003.70
2019-03-10T00:42:11.485Z,1003.77
2019-03-10T00:43:11.503Z,1003.78
2019-03-10T00:44:11.589Z,1003.73
2019-03-10T00:45:11.514Z,1003.74
2019-03-10T00:46:11.509Z,1003.97
2019-03-10T00:47:11.515Z,1003.84
2019-03-10T00:48:11.592Z,1003.72
2019-03-10T00:49:11.582Z,1003.93
2019-03-10T00:50:11.544Z,1003.87
2019-03-10T00:51:11.559Z,1003.81
2019-03-10T00:52:11.545Z,1003.85
2019-03-10T00:53:11.572Z,1003.78
2019-03-10T00:54:11.532Z,1003.74
2019-03-10T00:55:11.592Z,1003.75
2019-03-10T00:56:11.542Z,1003.61
2019-03-10T00:57:11.600Z,1003.78
2019-03-10T00:58:11.546Z,1003.76
2019-03-10T00:59:11.565Z,1003.58
2019-03-10T01:00:11.605Z,1003.68
2019-03-10T01:01:11.563Z,1003.56
2019-03-10T01:02:11.574Z,1003.68
2019-03-10T01:03:11.619Z,1003.69
2019-03-10T01:04:11.573Z,1003.70
2019-03-10T01:05:11.597Z,1003.75
2019-03-10T01:06:11.574Z,1003.70
2019-03-10T01:07:11.613Z,1003.67
2019-03-10T01:08:11.634Z,1003.60
2019-03-10T01:09:11.585Z,1003.57
2019-03-10T01:10:11.636Z,1003.62
2019-03-10T01:11:11.597Z,1003.65
2019-03-10T01:12:11.600Z,1003.57
2019-03-10T01:13:11.660Z,1003.56
2019-03-10T01:14:11.679Z,1003.65
2019-03-10T01:15:11.611Z,1003.65
2019-03-10T01:16:11.610Z,1003.57
2019-03-10T01:17:11.693Z,1003.50
2019-03-10T01:18:11.638Z,1003.63
2019-03-10T01:19:11.634Z,1003.58
2019-03-10T01:20:11.647Z,1003.59
2019-03-10T01:21:11.634Z,1003.66
2019-03-10T01:22:11.667Z,1003.60
2019-03-10T01:23:11.644Z,1003.61
2019-03-10T01:24:11.681Z,1003.59
2019-03-10T01:25:11.648Z,1003.62
2019-03-10T01:26:11.645Z,1003.45
2019-03-10T01:27:11.710Z,1003.50
2019-03-10T01:28:11.657Z,1003.42
2019-03-10T01:29:11.672Z,1003.38
2019-03-10T01:30:11.659Z,1003.39
2019-03-10T01:31:11.687Z,1003.43
2019-03-10T01:32:11.683Z,1003.42
2019-03-10T01:33:11.701Z,1003.42
2019-03-10T01:34:11.718Z,1003.46
2019-03-10T01:35:11.709Z,1003.37
2019-03-10T01:36:11.730Z,1003.41
2019-03-10T01:37:11.689Z,1003.41
2019-03-10T01:38:11.712Z,1003.39
2019-03-10T01:39:11.693Z,1003.37
2019-03-10T01:40:11.691Z,1003.47
2019-03-10T01:41:11.705Z,1003.47
2019-03-10T01:42:11.789Z,1003.48
2019-03-10T01:43:11.780Z,1003.45
2019-03-10T01:44:11.712Z,1003.40
2019-03-10T01:45:11.727Z,1003.38
2019-03-10T01:46:11.735Z,1003.27
2019-03-10T01:47:11.733Z,1003.24
2019-03-10T01:48:11.753Z,1003.26
2019-03-10T01:49:11.722Z,1003.22
2019-03-10T01:50:11.775Z,1003.22
2019-03-10T01:51:11.750Z,1003.22
2019-03-10T01:52:11.737Z,1003.25
2019-03-10T01:53:11.736Z,1003.26
2019-03-10T01:54:11.845Z,1003.32
2019-03-10T01:55:11.757Z,1003.27
2019-03-10T01:56:11.783Z,1003.30
2019-03-10T01:57:11.767Z,1003.29
2019-03-10T01:58:11.763Z,1003.27
2019-03-10T01:59:11.772Z,1003.29
2019-03-10T02:00:11.831Z,1003.24
2019-03-10T02:01:11.797Z,1003.16
2019-03-10T02:02:11.780Z,1003.23
2019-03-10T02:03:11.786Z,1003.20
2019-03-10T02:04:11.792Z,1003.26
2019-03-10T02:05:11.812Z,1003.20
2019-03-10T02:06:11.829Z,1003.21
2019-03-10T02:07:11.780Z,1003.22
2019-03-10T02:08:11.788Z,1003.17
2019-03-10T02:09:11.802Z,1003.16
2019-03-10T02:10:11.798Z,1003.16
2019-03-10T02:11:11.841Z,1003.14
2019-03-10T02:12:11.806Z,1003.12
2019-03-10T02:13:11.836Z,1003.16
2019-03-10T02:14:11.832Z,1003.18
2019-03-10T02:15:11.832Z,1003.15
2019-03-10T02:16:11.842Z,1003.12
2019-03-10T02:17:11.853Z,1003.15
2019-03-10T02:18:11.833Z,1003.11
2019-03-10T02:19:11.821Z,1003.13
2019-03-10T02:20:11.856Z,1003.12
2019-03-10T02:21:11.884Z,1003.16
2019-03-10T02:22:11.844Z,1003.06
2019-03-10T02:23:11.867Z,1003.08
2019-03-10T02:24:11.860Z,1003.04
2019-03-10T02:25:11.853Z,1003.09
2019-03-10T02:26:11.918Z,1003.06
2019-03-10T02:27:11.874Z,1003.10
2019-03-10T02:28:11.876Z,1003.06
2019-03-10T02:29:11.886Z,1003.05
2019-03-10T02:30:11.893Z,1003.17
2019-03-10T02:31:11.868Z,1003.09
2019-03-10T02:32:11.961Z,1003.11
2019-03-10T02:33:11.917Z,1003.15
2019-03-10T02:34:11.937Z,1003.00
2019-03-10T02:35:11.957Z,1003.02
2019-03-10T02:36:11.885Z,1003.04
2019-03-10T02:37:11.980Z,1003.02
2019-03-10T02:38:11.931Z,1003.02
2019-03-10T02:39:11.904Z,1002.92
2019-03-10T02:40:11.921Z,1002.96
2019-03-10T02:41:11.977Z,1002.97
2019-03-10T02:42:11.911Z,1002.89
2019-03-10T02:43:11.973Z,1002.93
2019-03-10T02:44:11.989Z,1002.86
2019-03-10T02:45:11.955Z,1002.86
2019-03-10T02:46:11.931Z,1002.87
2019-03-10T02:47:11.953Z,1002.92
2019-03-10T02:48:11.932Z,1002.89
2019-03-10T02:49:12.037Z,1002.72
2019-03-10T02:50:11.971Z,1002.71
2019-03-10T02:51:11.949Z,1002.73
2019-03-10T02:52:11.962Z,1002.75
2019-03-10T02:53:11.986Z,1002.70
2019-03-10T02:54:11.984Z,1002.77
2019-03-10T02:55:11.995Z,1002.77
2019-03-10T02:56:11.976Z,1002.77
2019-03-10T02:57:11.960Z,1002.70
2019-03-10T02:58:12.009Z,1002.67
2019-03-10T02:59:11.986Z,1002.65
2019-03-10T03:00:11.983Z,1002.66
2019-03-10T03:01:11.993Z,1002.66
2019-03-10T03:02:12.005Z,1002.73
2019-03-10T03:03:12.022Z,1002.73
2019-03-10T03:04:11.986Z,1002.73
2019-03-10T03:05:11.989Z,1002.74
2019-03-10T03:06:12.006Z,1002.75
2019-03-10T03:07:12.016Z,1002.70
2019-03-10T03:08:12.014Z,1002.72
2019-03-10T03:09:12.069Z,1002.64
2019-03-10T03:10:11.999Z,1002.66
2019-03-10T03:11:12.065Z,1002.60
2019-03-10T03:12:12.026Z,1002.66
2019-03-10T03:13:12.024Z,1002.62
2019-03-10T03:14:12.083Z,1002.62
2019-03-10T03:15:12.029Z,1002.61
2019-03-10T03:16:12.024Z,1002.60
2019-03-10T03:17:12.027Z,1002.54
2019-03-10T03:18:12.093Z,1002.53
2019-03-10T03:19:12.053Z,1002.55
2019-03-10T03:20:12.096Z,1002.53
2019-03-10T03:21:12.092Z,1002.52
2019-03-10T03:22:12.053Z,1002.54
2019-03-10T03:23:12.040Z,1002.47
2019-03-10T03:24:12.105Z,1002.43
2019-03-10T03:25:12.073Z,1002.41
2019-03-10T03:26:12.065Z,1002.46
2019-03-10T03:27:12.141Z,1002.41
2019-03-10T03:28:12.081Z,1002.44
2019-03-10T03:29:12.084Z,1002.47
2019-03-10T03:30:12.082Z,1002.42
2019-03-10T03:31:12.118Z,1002.46
2019-03-10T03:32:12.085Z,1002.48
2019-03-10T03:33:12.102Z,1002.46
2019-03-10T03:34:12.124Z,1002.48
2019-03-10T03:35:12.112Z,1002.45
2019-03-10T03:36:12.160Z,1002.46
2019-03-10T03:37:12.109Z,1002.51
2019-03-10T03:38:12.178Z,1002.45
2019-03-10T03:39:12.160Z,1002.44
2019-03-10T03:40:12.103Z,1002.44
2019-03-10T03:41:12.153Z,1002.35
2019-03-10T03:42:12.117Z,1002.34
2019-03-10T03:43:12.203Z,1002.27
2019-03-10T03:44:12.128Z,1002.28
2019-03-10T03:45:12.153Z,1002.32
2019-03-10T03:46:12.124Z,1002.26
2019-03-10T03:47:12.158Z,1002.29
2019-03-10T03:48:12.164Z,1002.28
2019-03-10T03:49:12.187Z,1002.30
2019-03-10T03:50:12.204Z,1002.27
2019-03-10T03:51:12.143Z,1002.28
2019-03-10T03:52:12.206Z,1002.23
2019-03-10T03:53:12.262Z,1002.23
2019-03-10T03:54:12.162Z,1002.26
2019-03-10T03:55:12.192Z,1002.20
2019-03-10T03:56:12.156Z,1002.24
2019-03-10T03:57:12.163Z,1002.28
2019-03-10T03:58:12.164Z,1002.37
2019-03-10T03:59:12.235Z,1002.29
2019-03-10T04:00:12.174Z,1002.28
2019-03-10T04:01:12.184Z,1002.25
2019-03-10T04:02:12.199Z,1002.28
2019-03-10T04:03:12.228Z,1002.21
2019-03-10T04:04:12.188Z,1002.26
2019-03-10T04:05:12.248Z,1002.28
2019-03-10T04:06:12.190Z,1002.29
2019-03-10T04:07:12.216Z,1002.28
2019-03-10T04:08:12.207Z,1002.30
2019-03-10T04:09:12.250Z,1002.29
2019-03-10T04:10:12.211Z,1002.33
2019-03-10T04:11:12.256Z,1002.27
2019-03-10T04:12:12.213Z,1002.26
2019-03-10T04:13:12.216Z,1002.28
2019-03-10T04:14:12.231Z,1002.32
2019-03-10T04:15:12.280Z,1002.32
2019-03-10T04:16:12.236Z,1002.32
2019-03-10T04:17:12.247Z,1002.35
2019-03-10T04:18:12.247Z,1002.32
2019-03-10T04:19:12.266Z,1002.35
2019-03-10T04:20:12.241Z,1002.37
2019-03-10T04:21:12.303Z,1002.37
2019-03-10T04:22:12.309Z,1002.36
2019-03-10T04:23:12.270Z,1002.35
2019-03-10T04:24:12.303Z,1002.38
2019-03-10T04:25:12.249Z,1002.40
2019-03-10T04:26:12.262Z,1002.32
2019-03-10T04:27:12.265Z,1002.27
2019-03-10T04:28:12.315Z,1002.33
2019-03-10T04:29:12.281Z,1002.27
2019-03-10T04:30:12.345Z,1002.36
2019-03-10T04:31:12.287Z,1002.30
2019-03-10T04:32:12.277Z,1002.26
2019-03-10T04:33:12.300Z,1002.29
2019-03-10T04:34:12.358Z,1002.25
2019-03-10T04:35:12.299Z,1002.26
2019-03-10T04:36:12.295Z,1002.25
2019-03-10T04:37:12.360Z,1002.24
2019-03-10T04:38:12.332Z,1002.30
2019-03-10T04:39:12.312Z,1002.30
2019-03-10T04:40:12.311Z,1002.33
2019-03-10T04:41:12.363Z,1002.25
2019-03-10T04:42:12.316Z,1002.36
2019-03-10T04:43:12.336Z,1002.38
2019-03-10T04:44:12.325Z,1002.38
2019-03-10T04:45:12.340Z,1002.43
2019-03-10T04:46:12.331Z,1002.41
2019-03-10T04:47:12.371Z,1002.38
2019-03-10T04:48:12.365Z,1002.38
2019-03-10T04:49:12.340Z,1002.44
2019-03-10T04:50:12.377Z,1002.38
2019-03-10T04:51:12.385Z,1002.40
2019-03-10T04:52:12.370Z,1002.39
2019-03-10T04:53:12.350Z,1002.46
2019-03-10T04:54:12.405Z,1002.43
2019-03-10T04:55:12.405Z,1002.40
2019-03-10T04:56:12.376Z,1002.41
2019-03-10T04:57:12.379Z,1002.45
2019-03-10T04:58:12.422Z,1002.43
2019-03-10T04:59:12.363Z,1002.46
2019-03-10T05:00:12.427Z,1002.48
2019-03-10T05:01:12.389Z,1002.49
2019-03-10T05:02:12.415Z,1002.45
2019-03-10T05:03:12.391Z,1002.41
2019-03-10T05:04:12.416Z,1002.37
2019-03-10T05:05:12.402Z,1002.44
2019-03-10T05:06:12.404Z,1002.42
2019-03-10T05:07:12.404Z,1002.36
2019-03-10T05:08:12.399Z,1002.38
2019-03-10T05:09:12.426Z,1002.34
2019-03-10T05:10:12.441Z,1002.38
2019-03-10T05:11:12.415Z,1002.44
2019-03-10T05:12:12.431Z,1002.46
2019-03-10T05:13:12.420Z,1002.52
2019-03-10T05:14:12.485Z,1002.48
2019-03-10T05:15:12.452Z,1002.44
2019-03-10T05:16:12.513Z,1002.44
2019-03-10T05:17:12.438Z,1002.43
2019-03-10T05:18:12.441Z,1002.47
2019-03-10T05:19:12.511Z,1002.40
2019-03-10T05:20:12.463Z,1002.42
2019-03-10T05:21:12.445Z,1002.41
2019-03-10T05:22:12.471Z,1002.39
2019-03-10T05:23:12.484Z,1002.33
2019-03-10T05:24:12.484Z,1002.39
2019-03-10T05:25:12.517Z,1002.40
2019-03-10T05:26:12.543Z,1002.31
2019-03-10T05:27:12.471Z,1002.29
2019-03-10T05:28:12.536Z,1002.29
2019-03-10T05:29:12.546Z,1002.26
2019-03-10T05:30:12.551Z,1002.31
2019-03-10T05:31:12.494Z,1002.35
2019-03-10T05:32:12.501Z,1002.27
2019-03-10T05:33:12.506Z,1002.28
2019-03-10T05:34:12.503Z,1002.29
2019-03-10T05:35:12.546Z,1002.25
2019-03-10T05:36:12.511Z,1002.25
2019-03-10T05:37:12.521Z,1002.34
2019-03-10T05:38:12.516Z,1002.29
2019-03-10T05:39:12.517Z,1002.29
2019-03-10T05:40:12.549Z,1002.17
2019-03-10T05:41:12.603Z,1002.22
2019-03-10T05:42:12.597Z,1002.18
2019-03-10T05:43:12.538Z,1002.17
2019-03-10T05:44:12.571Z,1002.19
2019-03-10T05:45:12.554Z,1002.15
2019-03-10T05:46:12.564Z,1002.20
2019-03-10T05:47:12.572Z,1002.18
2019-03-10T05:48:12.621Z,1002.16
2019-03-10T05:49:12.566Z,1002.19
2019-03-10T05:50:12.563Z,1002.16
2019-03-10T05:51:12.644Z,1002.14
2019-03-10T05:52:12.568Z,1002.11
2019-03-10T05:53:12.569Z,1002.14
2019-03-10T05:54:12.865Z,1002.09
2019-03-10T05:55:12.583Z,1002.02
2019-03-10T05:56:12.585Z,1002.07
2019-03-10T05:57:12.631Z,1002.04
2019-03-10T05:58:12.623Z,1002.07
2019-03-10T05:59:12.604Z,1002.08
2019-03-10T06:00:12.636Z,1002.04
2019-03-10T06:01:12.595Z,1002.01
2019-03-10T06:02:12.599Z,1001.98
2019-03-10T06:03:12.660Z,1001.96
2019-03-10T06:04:12.694Z,1001.95
2019-03-10T06:05:12.651Z,1001.92
2019-03-10T06:06:12.636Z,1001.88
2019-03-10T06:07:12.630Z,1001.89
2019-03-10T06:08:12.653Z,1001.91
2019-03-10T06:09:12.645Z,1001.83
2019-03-10T06:10:12.676Z,1001.82
2019-03-10T06:11:12.664Z,1001.81
2019-03-10T06:12:12.648Z,1001.80
2019-03-10T06:13:12.758Z,1001.72
2019-03-10T06:14:12.683Z,1001.77
2019-03-10T06:15:12.668Z,1001.69
2019-03-10T06:16:12.897Z,1001.68
2019-03-10T06:17:12.663Z,1001.67
2019-03-10T06:18:13.817Z,1001.67
2019-03-10T06:19:12.692Z,1001.63
2019-03-10T06:20:12.687Z,1001.69
2019-03-10T06:21:12.717Z,1001.64
2019-03-10T06:22:12.910Z,1001.67
2019-03-10T06:23:12.701Z,1001.68
2019-03-10T06:24:12.730Z,1001.73
2019-03-10T06:25:12.709Z,1001.69
2019-03-10T06:26:12.747Z,1001.68
2019-03-10T06:27:12.742Z,1001.64
2019-03-10T06:28:12.719Z,1001.63
2019-03-10T06:29:12.714Z,1001.63
2019-03-10T06:30:12.749Z,1001.65
2019-03-10T06:31:12.727Z,1001.62
2019-03-10T06:32:12.737Z,1001.63
2019-03-10T06:33:12.791Z,1001.60
2019-03-10T06:34:12.772Z,1001.65
2019-03-10T06:35:12.731Z,1001.64
2019-03-10T06:36:12.757Z,1001.66
2019-03-10T06:37:12.759Z,1001.71
2019-03-10T06:38:12.778Z,1001.74
2019-03-10T06:39:12.783Z,1001.66
2019-03-10T06:40:12.772Z,1001.67
2019-03-10T06:41:12.774Z,1001.62
2019-03-10T06:42:12.752Z,1001.62
2019-03-10T06:43:12.834Z,1001.58
2019-03-10T06:44:12.850Z,1001.56
2019-03-10T06:45:12.829Z,1001.54
2019-03-10T06:46:12.825Z,1001.53
2019-03-10T06:47:12.790Z,1001.51
2019-03-10T06:48:12.786Z,1001.54
2019-03-10T06:49:12.807Z,1001.49
2019-03-10T06:50:12.836Z,1001.50
2019-03-10T06:51:12.843Z,1001.48
2019-03-10T06:52:12.848Z,1001.47
2019-03-10T06:53:12.818Z,1001.52
2019-03-10T06:54:12.859Z,1001.57
2019-03-10T06:55:12.876Z,1001.62
2019-03-10T06:56:12.827Z,1001.55
2019-03-10T06:57:12.829Z,1001.60
2019-03-10T06:58:12.843Z,1001.58
2019-03-10T06:59:12.853Z,1001.56
2019-03-10T07:00:12.900Z,1001.52
2019-03-10T07:01:12.843Z,1001.55
2019-03-10T07:02:12.872Z,1001.49
2019-03-10T07:03:12.879Z,1001.49
2019-03-10T07:04:12.855Z,1001.53
2019-03-10T07:05:12.902Z,1001.49
2019-03-10T07:06:12.899Z,1001.46
2019-03-10T07:07:12.863Z,1001.48
2019-03-10T07:08:12.864Z,1001.47
2019-03-10T07:09:12.870Z,1001.46
2019-03-10T07:10:12.921Z,1001.42
2019-03-10T07:11:12.891Z,1001.44
2019-03-10T07:12:12.886Z,1001.46
2019-03-10T07:13:12.897Z,1001.42
2019-03-10T07:14:12.907Z,1001.43
2019-03-10T07:15:12.941Z,1001.49
2019-03-10T07:16:12.907Z,1001.43
2019-03-10T07:17:12.899Z,1001.44
2019-03-10T07:18:12.962Z,1001.45
2019-03-10T07:19:12.939Z,1001.47
2019-03-10T07:20:12.931Z,1001.52
2019-03-10T07:21:12.945Z,1001.45
2019-03-10T07:22:16.641Z,1001.43
2019-03-10T07:23:12.945Z,1001.42
2019-03-10T07:24:12.974Z,1001.40
2019-03-10T07:25:12.959Z,1001.39
2019-03-10T07:26:13.170Z,1001.42
2019-03-10T07:27:12.961Z,1001.44
2019-03-10T07:28:13.017Z,1001.41
2019-03-10T07:29:13.318Z,1001.45
2019-03-10T07:30:12.968Z,1001.41
2019-03-10T07:31:12.972Z,1001.43
2019-03-10T07:32:12.985Z,1001.38
2019-03-10T07:33:13.006Z,1001.41
2019-03-10T07:34:12.989Z,1001.38
2019-03-10T07:35:13.048Z,1001.39
2019-03-10T07:36:13.006Z,1001.40
2019-03-10T07:37:13.094Z,1001.38
2019-03-10T07:38:13.078Z,1001.38
2019-03-10T07:39:13.897Z,1001.36
2019-03-10T07:40:13.051Z,1001.35
2019-03-10T07:41:13.116Z,1001.41
2019-03-10T07:42:13.060Z,1001.42
2019-03-10T07:43:13.072Z,1001.40
2019-03-10T07:44:13.046Z,1001.42
2019-03-10T07:45:13.073Z,1001.36
2019-03-10T07:46:13.115Z,1001.38
2019-03-10T07:47:13.117Z,1001.37
2019-03-10T07:48:13.137Z,1001.38
2019-03-10T07:49:13.063Z,1001.32
2019-03-10T07:50:13.081Z,1001.33
2019-03-10T07:51:13.106Z,1001.26
2019-03-10T07:52:20.119Z,1001.21
2019-03-10T07:53:13.124Z,1001.25
2019-03-10T07:54:13.087Z,1001.19
2019-03-10T07:55:13.105Z,1001.22
2019-03-10T07:56:13.156Z,1001.24
2019-03-10T07:57:13.110Z,1001.28
2019-03-10T07:58:13.216Z,1001.22
2019-03-10T07:59:13.207Z,1001.24
2019-03-10T08:00:13.138Z,1001.23
2019-03-10T08:01:13.152Z,1001.20
2019-03-10T08:02:13.206Z,1001.10
2019-03-10T08:03:13.200Z,1001.15
2019-03-10T08:04:13.161Z,1001.09
2019-03-10T08:05:13.161Z,1001.10
2019-03-10T08:06:13.170Z,1001.06
2019-03-10T08:07:13.174Z,1001.03
2019-03-10T08:08:13.187Z,1001.01
2019-03-10T08:09:13.280Z,1001.03
2019-03-10T08:10:13.196Z,1001.00
2019-03-10T08:11:13.179Z,1001.02
2019-03-10T08:12:13.195Z,1001.00
2019-03-10T08:13:13.217Z,1001.05
2019-03-10T08:14:13.304Z,1000.98
2019-03-10T08:15:13.222Z,1000.93
2019-03-10T08:16:13.219Z,1000.94
2019-03-10T08:17:13.230Z,1000.92
2019-03-10T08:18:13.236Z,1000.93
2019-03-10T08:19:13.235Z,1000.93
2019-03-10T08:20:13.314Z,1000.89
2019-03-10T08:21:13.264Z,1000.90
2019-03-10T08:22:13.258Z,1000.81
2019-03-10T08:23:13.262Z,1000.82
2019-03-10T08:24:13.251Z,1000.82
2019-03-10T08:25:13.289Z,1000.78
2019-03-10T08:26:13.315Z,1000.75
2019-03-10T08:27:13.272Z,1000.73
2019-03-10T08:28:13.281Z,1000.73
2019-03-10T08:29:13.300Z,1000.69
2019-03-10T08:30:13.346Z,1000.64
2019-03-10T08:31:13.301Z,1000.63
2019-03-10T08:32:13.352Z,1000.57
2019-03-10T08:33:13.322Z,1000.55
2019-03-10T08:34:13.323Z,1000.50
2019-03-10T08:35:13.328Z,1000.54
2019-03-10T08:36:13.910Z,1000.51
2019-03-10T08:37:13.383Z,1000.49
2019-03-10T08:38:13.405Z,1000.43
2019-03-10T08:39:13.364Z,1000.39
2019-03-10T08:40:13.416Z,1000.40
2019-03-10T08:41:13.412Z,1000.36
2019-03-10T08:42:20.165Z,1000.35
2019-03-10T08:43:13.373Z,1000.33
2019-03-10T08:44:13.392Z,1000.27
2019-03-10T08:45:13.459Z,1000.26
2019-03-10T08:46:13.394Z,1000.20
2019-03-10T08:47:13.415Z,1000.23
2019-03-10T08:48:13.426Z,1000.26
2019-03-10T08:49:13.417Z,1000.29
2019-03-10T08:50:13.427Z,1000.21
2019-03-10T08:51:13.464Z,1000.23
2019-03-10T08:52:13.433Z,1000.28
2019-03-10T08:53:13.427Z,1000.28
2019-03-10T08:54:13.473Z,1000.25
2019-03-10T08:55:13.475Z,1000.25
2019-03-10T08:56:13.462Z,1000.26
2019-03-10T08:57:13.526Z,1000.21
2019-03-10T08:58:13.463Z,1000.14
2019-03-10T08:59:13.461Z,1000.19
2019-03-10T09:00:13.475Z,1000.04
2019-03-10T09:01:13.473Z,1000.11
2019-03-10T09:02:13.558Z,1000.09
2019-03-10T09:03:13.494Z,1000.15
2019-03-10T09:04:13.527Z,1000.11
2019-03-10T09:05:13.508Z,1000.16
2019-03-10T09:06:13.615Z,1000.13
2019-03-10T09:07:13.565Z,1000.09
2019-03-10T09:08:13.505Z,1000.07
2019-03-10T09:09:13.560Z,1000.09
2019-03-10T09:10:13.823Z,1000.08
2019-03-10T09:11:13.548Z,1000.04
2019-03-10T09:12:13.561Z,1000.07
2019-03-10T09:13:13.633Z,1000.02
2019-03-10T09:14:13.651Z,1000.06
2019-03-10T09:15:13.589Z,1000.02
2019-03-10T09:16:13.571Z,1000.00
2019-03-10T09:17:13.600Z,999.97
2019-03-10T09:18:13.580Z,999.96
2019-03-10T09:19:13.586Z,999.97
2019-03-10T09:20:13.656Z,999.94
2019-03-10T09:21:13.636Z,999.93
2019-03-10T09:22:13.604Z,999.92
2019-03-10T09:23:13.767Z,999.93
2019-03-10T09:24:13.617Z,999.91
2019-03-10T09:25:13.696Z,999.82
2019-03-10T09:26:13.681Z,999.85
2019-03-10T09:27:13.697Z,999.84
2019-03-10T09:28:13.649Z,999.79
2019-03-10T09:29:13.663Z,999.73
2019-03-10T09:30:14.033Z,999.74
2019-03-10T09:31:13.980Z,999.65
2019-03-10T09:32:13.678Z,999.62
2019-03-10T09:33:13.783Z,999.63
2019-03-10T09:34:13.700Z,999.58
2019-03-10T09:35:13.712Z,999.56
2019-03-10T09:36:13.820Z,999.51
2019-03-10T09:37:14.145Z,999.55
2019-03-10T09:38:13.725Z,999.48
2019-03-10T09:39:13.744Z,999.47
2019-03-10T09:40:13.748Z,999.45
2019-03-10T09:41:13.768Z,999.45
2019-03-10T09:42:13.758Z,999.44
2019-03-10T09:43:13.750Z,999.45
2019-03-10T09:44:13.776Z,999.42
2019-03-10T09:45:13.793Z,999.38
2019-03-10T09:46:13.785Z,999.41
2019-03-10T09:47:13.834Z,999.34
2019-03-10T09:48:13.785Z,999.34
2019-03-10T09:49:13.810Z,999.31
2019-03-10T09:50:13.813Z,999.28
2019-03-10T09:51:13.803Z,999.26
2019-03-10T09:52:13.880Z,999.24
2019-03-10T09:53:13.873Z,999.22
2019-03-10T09:54:13.846Z,999.18
2019-03-10T09:55:13.855Z,999.20
2019-03-10T09:56:13.864Z,999.19
2019-03-10T09:57:13.928Z,999.20
2019-03-10T09:58:13.882Z,999.26
2019-03-10T09:59:13.977Z,999.21
2019-03-10T10:00:13.924Z,999.22
2019-03-10T10:01:13.864Z,999.17
2019-03-10T10:02:13.880Z,999.19
2019-03-10T10:03:13.971Z,999.17
2019-03-10T10:04:13.897Z,999.17
2019-03-10T10:05:13.884Z,999.17
2019-03-10T10:06:13.895Z,999.12
2019-03-10T10:07:13.921Z,999.13
2019-03-10T10:08:13.927Z,999.05
2019-03-10T10:09:13.942Z,999.03
2019-03-10T10:10:13.946Z,998.99
2019-03-10T10:11:13.955Z,998.98
2019-03-10T10:12:14.011Z,998.96
2019-03-10T10:13:13.971Z,998.96
2019-03-10T10:14:13.987Z,998.90
2019-03-10T10:15:13.993Z,998.87
2019-03-10T10:16:13.984Z,998.87
2019-03-10T10:17:14.036Z,998.80
2019-03-10T10:18:14.003Z,998.86
2019-03-10T10:19:13.998Z,998.82
2019-03-10T10:20:14.011Z,998.83
2019-03-10T10:21:14.072Z,998.88
2019-03-10T10:22:14.115Z,998.86
2019-03-10T10:23:14.037Z,998.79
2019-03-10T10:24:14.049Z,998.79
2019-03-10T10:25:14.072Z,998.79
2019-03-10T10:26:14.069Z,998.70
2019-03-10T10:27:14.063Z,998.68
2019-03-10T10:28:14.233Z,998.68
2019-03-10T10:29:14.102Z,998.64
2019-03-10T10:30:14.088Z,998.55
2019-03-10T10:31:14.143Z,998.58
2019-03-10T10:32:14.110Z,998.54
2019-03-10T10:33:14.113Z,998.52
2019-03-10T10:34:14.110Z,998.54
2019-03-10T10:35:14.118Z,998.52
2019-03-10T10:36:14.123Z,998.49
2019-03-10T10:37:14.144Z,998.45
2019-03-10T10:38:18.448Z,998.41
2019-03-10T10:39:14.213Z,998.42
2019-03-10T10:40:14.164Z,998.33
2019-03-10T10:41:14.164Z,998.34
2019-03-10T10:42:14.210Z,998.33
2019-03-10T10:43:14.188Z,998.31
2019-03-10T10:44:14.239Z,998.24
2019-03-10T10:45:14.211Z,998.25
2019-03-10T10:46:14.220Z,998.23
2019-03-10T10:47:14.210Z,998.25
2019-03-10T10:48:14.297Z,998.24
2019-03-10T10:49:14.241Z,998.22
2019-03-10T10:50:14.246Z,998.20
2019-03-10T10:51:14.264Z,998.21
2019-03-10T10:52:14.290Z,998.17
2019-03-10T10:53:14.475Z,998.18
2019-03-10T10:54:14.283Z,998.13
2019-03-10T10:55:14.329Z,998.12
2019-03-10T10:56:14.294Z,998.12
2019-03-10T10:57:14.291Z,998.13
2019-03-10T10:58:14.333Z,998.11
2019-03-10T10:59:14.293Z,998.12
2019-03-10T11:00:14.298Z,998.14
2019-03-10T11:01:14.294Z,998.16
2019-03-10T11:02:14.367Z,998.16
2019-03-10T11:03:14.307Z,998.13
2019-03-10T11:04:14.314Z,998.12
2019-03-10T11:05:14.397Z,998.06
2019-03-10T11:06:14.349Z,998.03
2019-03-10T11:07:14.335Z,998.06
2019-03-10T11:08:14.356Z,998.03
2019-03-10T11:09:14.372Z,998.02
2019-03-10T11:10:14.390Z,998.01
2019-03-10T11:11:14.447Z,998.04
2019-03-10T11:12:14.382Z,997.98
2019-03-10T11:13:14.404Z,997.94
2019-03-10T11:14:14.398Z,997.89
2019-03-10T11:15:14.493Z,997.81
2019-03-10T11:16:14.414Z,997.77
2019-03-10T11:17:14.491Z,997.69
2019-03-10T11:18:15.387Z,997.67
2019-03-10T11:19:14.493Z,997.63
2019-03-10T11:20:14.522Z,997.57
2019-03-10T11:21:14.670Z,997.62
2019-03-10T11:22:14.459Z,997.59
2019-03-10T11:23:14.558Z,997.61
2019-03-10T11:24:14.456Z,997.58
2019-03-10T11:25:14.482Z,997.55
2019-03-10T11:26:14.485Z,997.47
2019-03-10T11:27:14.494Z,997.44
2019-03-10T11:28:14.556Z,997.43
2019-03-10T11:29:14.515Z,997.46
2019-03-10T11:30:14.525Z,997.42
2019-03-10T11:31:14.512Z,997.40
2019-03-10T11:32:14.532Z,997.41
2019-03-10T11:33:14.533Z,997.40
2019-03-10T11:34:14.549Z,997.42
2019-03-10T11:35:14.633Z,997.43
2019-03-10T11:36:14.572Z,997.42
2019-03-10T11:37:14.527Z,997.40
2019-03-10T11:38:14.605Z,997.40
2019-03-10T11:39:14.559Z,997.39
2019-03-10T11:40:14.567Z,997.43
2019-03-10T11:41:14.613Z,997.40
2019-03-10T11:42:14.620Z,997.43
2019-03-10T11:43:14.564Z,997.43
2019-03-10T11:44:14.626Z,997.42
2019-03-10T11:45:14.641Z,997.42
2019-03-10T11:46:14.611Z,997.34
2019-03-10T11:47:14.607Z,997.35
2019-03-10T11:48:14.693Z,997.30
2019-03-10T11:49:14.690Z,997.30
2019-03-10T11:50:15.231Z,997.30
2019-03-10T11:51:14.618Z,997.28
2019-03-10T11:52:14.710Z,997.25
2019-03-10T11:53:19.102Z,997.21
2019-03-10T11:54:14.694Z,997.20
2019-03-10T11:55:14.825Z,997.20
2019-03-10T11:56:14.663Z,997.21
2019-03-10T11:57:14.698Z,997.21
2019-03-10T11:58:14.687Z,997.20
2019-03-10T11:59:14.718Z,997.12
2019-03-10T12:00:14.678Z,997.07
2019-03-10T12:01:14.739Z,996.99
2019-03-10T12:02:16.379Z,996.95
2019-03-10T12:03:14.702Z,996.95
2019-03-10T12:04:14.719Z,996.93
2019-03-10T12:05:14.722Z,996.89
2019-03-10T12:06:14.791Z,996.93
2019-03-10T12:07:14.777Z,996.96
2019-03-10T12:08:14.736Z,996.91
2019-03-10T12:09:14.743Z,996.87
2019-03-10T12:10:14.757Z,996.85
2019-03-10T12:11:14.764Z,996.82